createdAt,value
2018-03-18T00:00:01.654Z,100018.23
2018-03-18T00:02:32.620Z,100003.92
2018-03-18T00:05:00.031Z,100002.13
2018-03-18T00:07:27.463Z,99995.25
2018-03-18T00:09:54.861Z,100003.08
2018-03-18T00:12:22.255Z,99987.59
2018-03-18T00:14:49.682Z,99999.13
2018-03-18T00:17:17.081Z,100001.91
2018-03-18T00:19:44.508Z,100002.72
2018-03-18T00:22:12.003Z,100004.38
2018-03-18T00:24:39.403Z,99992.36
2018-03-18T00:27:06.807Z,100004.64
2018-03-18T00:29:34.243Z,100007.06
2018-03-18T00:32:01.637Z,100017.88
2018-03-18T00:34:29.392Z,100009.52
2018-03-18T00:36:56.794Z,100003.73
2018-03-18T00:39:24.206Z,100032.45
2018-03-18T00:41:51.618Z,100016.58
2018-03-18T00:44:19.023Z,100009.44
2018-03-18T00:46:46.444Z,100010.67
2018-03-18T00:49:13.860Z,100025.62
2018-03-18T00:51:53.134Z,100014.17
2018-03-18T00:54:20.539Z,100005.38
2018-03-18T00:56:48.051Z,100014.28
2018-03-18T00:59:15.467Z,100004.73
2018-03-18T01:01:42.880Z,100006.75
2018-03-18T01:04:10.294Z,100023.63
2018-03-18T01:06:37.692Z,100018.39
2018-03-18T01:09:05.386Z,100004.26
2018-03-18T01:11:32.783Z,100001.95
2018-03-18T01:14:00.184Z,100011.70
2018-03-18T01:16:27.591Z,99994.32
2018-03-18T01:18:55.012Z,100039.89
2018-03-18T01:21:22.422Z,100002.09
2018-03-18T01:23:49.839Z,100004.00
2018-03-18T01:26:17.246Z,99989.45
2018-03-18T01:28:44.637Z,100009.11
2018-03-18T01:31:12.031Z,99999.70
2018-03-18T01:33:39.443Z,100007.81
2018-03-18T01:36:06.854Z,100016.83
2018-03-18T01:38:34.268Z,100041.39
2018-03-18T01:41:01.675Z,100010.11
2018-03-18T01:43:29.083Z,100009.84
2018-03-18T01:45:56.517Z,100005.11
2018-03-18T01:48:23.920Z,100007.79
2018-03-18T01:50:51.330Z,100009.01
2018-03-18T01:53:21.629Z,100019.00
2018-03-18T01:55:49.023Z,100014.95
2018-03-18T01:58:16.553Z,100021.30
2018-03-18T02:00:43.938Z,99995.41
2018-03-18T02:03:11.351Z,100018.73
2018-03-18T02:05:38.768Z,100016.19
2018-03-18T02:08:06.167Z,100007.71
2018-03-18T02:10:33.799Z,99995.41
2018-03-18T02:13:01.211Z,99986.11
2018-03-18T02:15:28.624Z,99979.80
2018-03-18T02:17:57.844Z,99994.10
2018-03-18T02:20:25.256Z,100034.80
2018-03-18T02:22:52.663Z,99998.02
2018-03-18T02:25:20.051Z,99999.36
2018-03-18T02:27:47.463Z,100004.88
2018-03-18T02:30:14.855Z,99993.70
2018-03-18T02:32:42.398Z,100000.98
2018-03-18T02:35:09.804Z,100010.98
2018-03-18T02:37:37.198Z,99989.00
2018-03-18T02:40:04.606Z,99990.34
2018-03-18T02:42:32.015Z,100001.80
2018-03-18T02:44:59.416Z,99994.37
2018-03-18T02:47:26.835Z,99991.55
2018-03-18T02:49:54.240Z,100004.48
2018-03-18T02:52:21.648Z,99981.84
2018-03-18T02:54:49.039Z,99984.68
2018-03-18T02:57:16.458Z,99990.58
2018-03-18T02:59:43.864Z,99980.23
2018-03-18T03:02:11.271Z,99991.03
2018-03-18T03:04:38.650Z,99973.50
2018-03-18T03:07:06.055Z,99989.41
2018-03-18T03:09:33.453Z,99976.88
2018-03-18T03:12:00.863Z,99981.47
2018-03-18T03:14:28.267Z,99992.91
2018-03-18T03:16:55.734Z,99986.19
2018-03-18T03:19:23.134Z,99989.55
2018-03-18T03:21:50.572Z,99983.88
2018-03-18T03:24:17.967Z,99991.16
2018-03-18T03:26:45.367Z,99994.28
2018-03-18T03:29:12.767Z,99989.81
2018-03-18T03:31:40.176Z,99980.67
2018-03-18T03:34:07.603Z,99980.13
2018-03-18T03:36:34.967Z,99983.48
2018-03-18T03:39:02.531Z,99989.95
2018-03-18T03:41:29.927Z,99996.56
2018-03-18T03:43:57.336Z,99985.91
2018-03-18T03:46:24.899Z,99989.27
2018-03-18T03:48:52.299Z,99981.34
2018-03-18T03:51:19.686Z,99994.95
2018-03-18T03:53:47.099Z,99991.44
2018-03-18T03:56:14.525Z,100005.45
2018-03-18T03:58:41.926Z,99985.37
2018-03-18T04:01:09.342Z,100009.10
2018-03-18T04:03:36.769Z,100005.47
2018-03-18T04:06:04.159Z,100000.33
2018-03-18T04:08:31.559Z,99999.65
2018-03-18T04:10:58.967Z,99998.84
2018-03-18T04:13:26.380Z,99986.18
2018-03-18T04:15:53.776Z,99988.19
2018-03-18T04:18:21.180Z,99987.53
2018-03-18T04:20:48.823Z,99995.33
2018-03-18T04:23:16.219Z,99999.38
2018-03-18T04:25:43.633Z,99982.52
2018-03-18T04:28:11.159Z,99990.64
2018-03-18T04:30:38.554Z,99982.52
2018-03-18T04:33:05.972Z,100009.49
2018-03-18T04:35:33.396Z,99988.61
2018-03-18T04:38:00.796Z,99985.91
2018-03-18T04:40:28.195Z,99990.08
2018-03-18T04:42:55.603Z,99991.42
2018-03-18T04:45:23.031Z,99995.59
2018-03-18T04:47:50.435Z,100018.48
2018-03-18T04:50:17.853Z,100003.80
2018-03-18T04:52:45.255Z,100002.73
2018-03-18T04:55:13.517Z,100018.61
2018-03-18T04:57:40.942Z,100021.33
2018-03-18T05:00:08.352Z,100026.19
2018-03-18T05:02:35.743Z,100015.09
2018-03-18T05:05:03.151Z,100026.03
2018-03-18T05:07:30.914Z,100014.59
2018-03-18T05:09:58.315Z,100018.48
2018-03-18T05:12:25.717Z,100025.34
2018-03-18T05:14:53.136Z,100009.59
2018-03-18T05:17:20.543Z,100039.09
2018-03-18T05:19:47.951Z,100014.44
2018-03-18T05:22:15.363Z,100023.99
2018-03-18T05:24:42.758Z,100030.31
2018-03-18T05:27:10.179Z,100037.05
2018-03-18T05:29:37.576Z,100035.17
2018-03-18T05:32:04.971Z,100019.95
2018-03-18T05:34:32.385Z,100046.48
2018-03-18T05:36:59.786Z,100029.38
2018-03-18T05:39:27.218Z,100032.60
2018-03-18T05:41:54.623Z,100027.91
2018-03-18T05:44:22.019Z,100038.11
2018-03-18T05:46:49.433Z,100059.00
2018-03-18T05:49:16.995Z,100047.25
2018-03-18T05:51:44.424Z,100049.95
2018-03-18T05:54:11.843Z,100076.22
2018-03-18T05:56:39.259Z,100053.45
2018-03-18T05:59:06.662Z,100044.73
2018-03-18T06:01:34.100Z,100064.27
2018-03-18T06:04:01.512Z,100061.17
2018-03-18T06:06:28.910Z,100059.45
2018-03-18T06:08:56.331Z,100087.45
2018-03-18T06:11:23.765Z,100051.38
2018-03-18T06:13:51.159Z,100040.72
2018-03-18T06:16:18.564Z,100062.14
2018-03-18T06:18:45.971Z,100048.27
2018-03-18T06:21:13.388Z,100077.41
2018-03-18T06:23:40.804Z,100062.30
2018-03-18T06:26:08.207Z,100053.41
2018-03-18T06:28:35.631Z,100067.16
2018-03-18T06:31:03.039Z,100065.41
2018-03-18T06:33:30.451Z,100076.73
2018-03-18T06:35:57.852Z,100069.47
2018-03-18T06:38:25.267Z,100083.23
2018-03-18T06:40:52.669Z,100056.66
2018-03-18T06:43:20.331Z,100087.28
2018-03-18T06:45:47.731Z,100071.09
2018-03-18T06:48:15.135Z,100096.70
2018-03-18T06:50:42.561Z,100109.81
2018-03-18T06:53:09.953Z,100070.70
2018-03-18T06:55:37.375Z,100062.31
2018-03-18T06:58:04.771Z,100064.27
2018-03-18T07:00:32.191Z,100072.96
2018-03-18T07:02:59.590Z,100075.53
2018-03-18T07:05:27.016Z,100099.91
2018-03-18T07:07:54.402Z,100068.16
2018-03-18T07:10:21.831Z,100083.12
2018-03-18T07:12:49.244Z,100096.33
2018-03-18T07:15:16.806Z,100102.67
2018-03-18T07:17:44.231Z,100106.24
2018-03-18T07:20:11.678Z,100058.86
2018-03-18T07:22:39.343Z,100108.65
2018-03-18T07:25:06.744Z,100095.21
2018-03-18T07:27:34.158Z,100110.61
2018-03-18T07:30:01.569Z,100085.62
2018-03-18T07:32:28.984Z,100098.72
2018-03-18T07:34:56.376Z,100103.23
2018-03-18T07:37:23.787Z,100128.63
2018-03-18T07:39:51.183Z,100083.08
2018-03-18T07:42:18.601Z,100103.59
2018-03-18T07:44:45.999Z,100107.55
2018-03-18T07:47:13.450Z,100126.95
2018-03-18T07:49:40.815Z,100117.75
2018-03-18T07:52:08.223Z,100124.86
2018-03-18T07:54:35.636Z,100108.47
2018-03-18T07:57:03.046Z,100111.60
2018-03-18T07:59:30.502Z,100133.72
2018-03-18T08:01:57.889Z,100146.32
2018-03-18T08:04:25.277Z,100118.37
2018-03-18T08:06:52.685Z,100118.36
2018-03-18T08:09:20.099Z,100150.72
2018-03-18T08:11:47.539Z,100135.34
2018-03-18T08:14:14.944Z,100132.91
2018-03-18T08:16:42.354Z,100137.32
2018-03-18T08:19:09.743Z,100157.97
2018-03-18T08:21:37.268Z,100125.63
2018-03-18T08:24:04.675Z,100147.05
2018-03-18T08:26:32.063Z,100140.55
2018-03-18T08:28:59.472Z,100138.83
2018-03-18T08:31:26.868Z,100144.59
2018-03-18T08:33:54.280Z,100159.09
2018-03-18T08:36:21.680Z,100175.38
2018-03-18T08:38:49.082Z,100153.80
2018-03-18T08:41:16.647Z,100152.49
2018-03-18T08:43:44.202Z,100155.73
2018-03-18T08:46:11.593Z,100153.66
2018-03-18T08:48:38.992Z,100157.73
2018-03-18T08:51:06.410Z,100154.95
2018-03-18T08:53:33.802Z,100162.13
2018-03-18T08:56:01.371Z,100162.08
2018-03-18T08:58:28.775Z,100157.36
2018-03-18T09:00:56.177Z,100167.80
2018-03-18T09:03:23.600Z,100153.22
2018-03-18T09:05:51.009Z,100179.17
2018-03-18T09:08:18.423Z,100194.42
2018-03-18T09:10:45.869Z,100181.04
2018-03-18T09:13:13.291Z,100173.17
2018-03-18T09:15:40.692Z,100180.34
2018-03-18T09:18:08.203Z,100170.55
2018-03-18T09:20:35.602Z,100174.28
2018-03-18T09:23:03.071Z,100175.32
2018-03-18T09:25:30.484Z,100193.98
2018-03-18T09:27:57.879Z,100180.03
2018-03-18T09:30:25.299Z,100157.30
2018-03-18T09:32:52.698Z,100171.07
2018-03-18T09:35:20.140Z,100176.47
2018-03-18T09:37:47.555Z,100183.22
2018-03-18T09:40:14.982Z,100163.20
2018-03-18T09:42:42.384Z,100201.76
2018-03-18T09:45:09.795Z,100183.70
2018-03-18T09:47:37.458Z,100161.59
2018-03-18T09:50:04.864Z,100202.37
2018-03-18T09:52:32.267Z,100180.22
2018-03-18T09:54:59.692Z,100176.73
2018-03-18T09:57:27.094Z,100167.95
2018-03-18T09:59:54.503Z,100157.23
2018-03-18T10:02:21.899Z,100185.86
2018-03-18T10:04:49.390Z,100171.12
2018-03-18T10:07:16.795Z,100163.30
2018-03-18T10:09:44.209Z,100187.84
2018-03-18T10:12:11.638Z,100160.81
2018-03-18T10:14:39.060Z,100201.49
2018-03-18T10:17:06.483Z,100159.25
2018-03-18T10:19:33.888Z,100200.20
2018-03-18T10:22:01.288Z,100186.00
2018-03-18T10:24:28.723Z,100168.56
2018-03-18T10:26:56.104Z,100207.91
2018-03-18T10:29:23.500Z,100184.95
2018-03-18T10:31:51.060Z,100188.36
2018-03-18T10:34:18.471Z,100166.34
2018-03-18T10:36:45.883Z,100189.47
2018-03-18T10:39:13.297Z,100173.81
2018-03-18T10:41:40.696Z,100198.38
2018-03-18T10:44:08.178Z,100188.27
2018-03-18T10:46:36.368Z,100188.35
2018-03-18T10:49:03.780Z,100192.52
2018-03-18T10:51:31.196Z,100184.63
2018-03-18T10:53:58.607Z,100205.31
2018-03-18T10:56:26.016Z,100212.84
2018-03-18T10:58:53.427Z,100229.97
2018-03-18T11:01:26.479Z,100217.59
2018-03-18T11:03:59.738Z,100205.91
2018-03-18T11:06:27.310Z,100205.16
2018-03-18T11:08:54.780Z,100200.52
2018-03-18T11:11:22.167Z,100199.91
2018-03-18T11:13:49.589Z,100192.05
2018-03-18T11:16:17.045Z,100193.56
2018-03-18T11:18:44.399Z,100221.68
2018-03-18T11:21:11.842Z,100203.17
2018-03-18T11:23:39.275Z,100212.95
2018-03-18T11:26:06.846Z,100199.91
2018-03-18T11:28:34.239Z,100196.72
2018-03-18T11:31:01.651Z,100174.38
2018-03-18T11:33:29.067Z,100208.90
2018-03-18T11:35:56.474Z,100175.34
2018-03-18T11:38:23.867Z,100184.78
2018-03-18T11:40:51.292Z,100184.06
2018-03-18T11:43:18.704Z,100222.86
2018-03-18T11:45:46.424Z,100201.63
2018-03-18T11:48:13.843Z,100192.23
2018-03-18T11:50:41.896Z,100181.85
2018-03-18T11:53:09.323Z,100177.31
2018-03-18T11:55:36.752Z,100173.70
2018-03-18T11:58:04.158Z,100179.08
2018-03-18T12:00:31.558Z,100171.05
2018-03-18T12:02:58.983Z,100197.23
2018-03-18T12:05:26.363Z,100187.28
2018-03-18T12:07:53.792Z,100166.09
2018-03-18T12:10:21.174Z,100175.70
2018-03-18T12:12:48.591Z,100157.52
2018-03-18T12:15:16.032Z,100199.75
2018-03-18T12:17:43.457Z,100176.88
2018-03-18T12:20:10.867Z,100177.19
2018-03-18T12:22:38.267Z,100171.17
2018-03-18T12:25:05.699Z,100216.83
2018-03-18T12:27:33.087Z,100162.06
2018-03-18T12:30:00.601Z,100194.81
2018-03-18T12:32:27.983Z,100206.06
2018-03-18T12:34:55.381Z,100166.45
2018-03-18T12:37:22.850Z,100195.93
2018-03-18T12:40:02.092Z,100168.19
2018-03-18T12:42:41.269Z,100191.43
2018-03-18T12:45:08.687Z,100165.13
2018-03-18T12:47:36.096Z,100168.12
2018-03-18T12:50:03.488Z,100154.55
2018-03-18T12:52:30.891Z,100142.97
2018-03-18T12:54:58.316Z,100140.30
2018-03-18T12:57:25.707Z,100176.05
2018-03-18T12:59:53.127Z,100167.38
2018-03-18T13:02:20.528Z,100152.97
2018-03-18T13:04:47.931Z,100166.00
2018-03-18T13:07:15.333Z,100169.73
2018-03-18T13:09:42.733Z,100165.45
2018-03-18T13:12:10.133Z,100152.49
2018-03-18T13:14:37.555Z,100166.42
2018-03-18T13:17:05.020Z,100161.78
2018-03-18T13:19:32.355Z,100153.48
2018-03-18T13:21:59.801Z,100153.17
2018-03-18T13:24:27.204Z,100156.31
2018-03-18T13:26:54.614Z,100128.66
2018-03-18T13:29:22.014Z,100181.67
2018-03-18T13:31:49.464Z,100141.38
2018-03-18T13:34:16.877Z,100150.46
2018-03-18T13:36:44.309Z,100177.09
2018-03-18T13:39:12.057Z,100161.67
2018-03-18T13:41:39.521Z,100148.94
2018-03-18T13:44:06.921Z,100147.30
2018-03-18T13:46:34.361Z,100136.83
2018-03-18T13:49:01.769Z,100149.37
2018-03-18T13:51:29.167Z,100148.32
2018-03-18T13:53:56.575Z,100132.20
2018-03-18T13:56:23.967Z,100132.78
2018-03-18T13:58:51.383Z,100138.94
2018-03-18T14:01:18.768Z,100156.63
2018-03-18T14:03:46.412Z,100140.30
2018-03-18T14:06:13.803Z,100158.30
2018-03-18T14:08:41.198Z,100121.97
2018-03-18T14:11:08.620Z,100136.03
2018-03-18T14:13:36.312Z,100165.27
2018-03-18T14:16:03.716Z,100129.12
2018-03-18T14:18:31.130Z,100157.31
2018-03-18T14:20:58.536Z,100144.16
2018-03-18T14:23:25.945Z,100145.03
2018-03-18T14:25:53.374Z,100131.63
2018-03-18T14:28:20.781Z,100136.88
2018-03-18T14:30:48.191Z,100137.59
2018-03-18T14:33:15.639Z,100135.56
2018-03-18T14:35:43.041Z,100147.52
2018-03-18T14:38:10.452Z,100138.81
2018-03-18T14:40:38.184Z,100152.02
2018-03-18T14:43:05.601Z,100166.66
2018-03-18T14:45:32.991Z,100141.35
2018-03-18T14:48:00.408Z,100140.06
2018-03-18T14:50:27.809Z,100149.72
2018-03-18T14:52:55.221Z,100136.30
2018-03-18T14:55:22.616Z,100138.09
2018-03-18T14:57:50.027Z,100150.40
2018-03-18T15:00:17.468Z,100143.02
2018-03-18T15:02:44.885Z,100158.19
2018-03-18T15:05:12.307Z,100143.31
2018-03-18T15:07:39.699Z,100148.02
2018-03-18T15:10:07.124Z,100142.09
2018-03-18T15:12:34.532Z,100151.33
2018-03-18T15:15:01.948Z,100168.63
2018-03-18T15:17:29.351Z,100141.08
2018-03-18T15:19:56.762Z,100152.19
2018-03-18T15:22:24.177Z,100149.70
2018-03-18T15:24:51.593Z,100138.80
2018-03-18T15:27:19.000Z,100159.53
2018-03-18T15:29:46.438Z,100154.15
2018-03-18T15:32:13.831Z,100140.06
2018-03-18T15:34:41.230Z,100181.86
2018-03-18T15:37:08.643Z,100140.53
2018-03-18T15:39:36.040Z,100150.45
2018-03-18T15:42:03.442Z,100146.16
2018-03-18T15:44:30.836Z,100141.14
2018-03-18T15:46:58.251Z,100157.64
2018-03-18T15:49:25.644Z,100138.94
2018-03-18T15:51:53.027Z,100138.17
2018-03-18T15:54:20.432Z,100152.63
2018-03-18T15:56:47.830Z,100167.75
2018-03-18T15:59:15.286Z,100146.70
2018-03-18T16:01:42.687Z,100146.84
2018-03-18T16:04:10.185Z,100162.83
2018-03-18T16:06:37.510Z,100155.07
2018-03-18T16:09:06.018Z,100151.31
2018-03-18T16:11:33.419Z,100149.92
2018-03-18T16:14:00.807Z,100161.20
2018-03-18T16:16:28.256Z,100148.13
2018-03-18T16:18:55.659Z,100159.72
2018-03-18T16:21:23.104Z,100156.80
2018-03-18T16:23:50.528Z,100164.09
2018-03-18T16:26:17.905Z,100179.47
2018-03-18T16:28:45.301Z,100188.59
2018-03-18T16:31:14.367Z,100171.30
2018-03-18T16:33:41.789Z,100166.02
2018-03-18T16:36:09.175Z,100168.42
2018-03-18T16:38:36.615Z,100168.97
2018-03-18T16:41:03.999Z,100163.31
2018-03-18T16:43:31.644Z,100168.46
2018-03-18T16:45:59.032Z,100167.10
2018-03-18T16:48:26.451Z,100197.06
2018-03-18T16:50:53.842Z,100180.18
2018-03-18T16:53:21.236Z,100202.27
2018-03-18T16:55:48.683Z,100183.09
2018-03-18T16:58:16.099Z,100184.62
2018-03-18T17:00:43.519Z,100180.75
2018-03-18T17:03:10.952Z,100184.72
2018-03-18T17:05:38.364Z,100177.09
2018-03-18T17:08:05.751Z,100183.86
2018-03-18T17:10:33.156Z,100193.34
2018-03-18T17:13:00.548Z,100193.72
2018-03-18T17:15:27.952Z,100193.75
2018-03-18T17:17:55.363Z,100215.56
2018-03-18T17:20:22.754Z,100213.87
2018-03-18T17:22:50.175Z,100216.17
2018-03-18T17:25:17.627Z,100207.66
2018-03-18T17:27:45.048Z,100201.32
2018-03-18T17:30:12.479Z,100230.28
2018-03-18T17:32:40.003Z,100212.84
2018-03-18T17:35:07.407Z,100223.92
2018-03-18T17:37:34.816Z,100225.70
2018-03-18T17:40:03.348Z,100225.27
2018-03-18T17:42:30.731Z,100224.27
2018-03-18T17:45:09.801Z,100234.84
2018-03-18T17:47:48.912Z,100238.60
2018-03-18T17:50:28.180Z,100243.23
2018-03-18T17:53:07.287Z,100246.51
2018-03-18T17:55:34.687Z,100256.92
2018-03-18T17:58:02.084Z,100245.32
2018-03-18T18:00:29.487Z,100253.55
2018-03-18T18:02:56.931Z,100239.52
2018-03-18T18:05:24.361Z,100250.98
2018-03-18T18:07:51.743Z,100267.23
2018-03-18T18:10:19.149Z,100289.97
2018-03-18T18:12:46.552Z,100256.64
2018-03-18T18:15:13.930Z,100259.76
2018-03-18T18:17:41.386Z,100246.75
2018-03-18T18:20:08.762Z,100254.64
2018-03-18T18:22:36.464Z,100253.46
2018-03-18T18:25:03.851Z,100251.41
2018-03-18T18:27:31.236Z,100254.73
2018-03-18T18:29:58.644Z,100263.73
2018-03-18T18:32:26.039Z,100272.24
2018-03-18T18:34:53.451Z,100277.53
2018-03-18T18:37:20.851Z,100282.97
2018-03-18T18:39:48.251Z,100282.56
2018-03-18T18:42:15.640Z,100291.80
2018-03-18T18:44:43.047Z,100298.45
2018-03-18T18:47:10.446Z,100292.38
2018-03-18T18:49:37.856Z,100294.05
2018-03-18T18:52:05.254Z,100292.04
2018-03-18T18:54:32.664Z,100310.49
2018-03-18T18:57:00.065Z,100307.66
2018-03-18T18:59:27.480Z,100302.40
2018-03-18T19:01:54.868Z,100295.92
2018-03-18T19:04:22.272Z,100305.27
2018-03-18T19:06:49.654Z,100297.84
2018-03-18T19:09:17.059Z,100298.64
2018-03-18T19:11:44.451Z,100308.67
2018-03-18T19:14:11.879Z,100299.87
2018-03-18T19:16:39.264Z,100306.39
2018-03-18T19:19:06.668Z,100303.86
2018-03-18T19:21:34.063Z,100327.42
2018-03-18T19:24:01.480Z,100307.13
2018-03-18T19:26:28.877Z,100300.06
2018-03-18T19:28:56.285Z,100306.55
2018-03-18T19:31:23.689Z,100302.22
2018-03-18T19:33:51.090Z,100282.18
2018-03-18T19:36:18.499Z,100291.12
2018-03-18T19:38:45.899Z,100292.64
2018-03-18T19:41:13.311Z,100290.32
2018-03-18T19:43:40.727Z,100294.11
2018-03-18T19:46:08.131Z,100304.02
2018-03-18T19:48:35.532Z,100289.31
2018-03-18T19:51:03.200Z,100295.23
2018-03-18T19:53:30.596Z,100317.42
2018-03-18T19:55:58.015Z,100285.75
2018-03-18T19:58:25.424Z,100291.45
2018-03-18T20:00:52.863Z,100296.03
2018-03-18T20:03:20.279Z,100289.95
2018-03-18T20:05:47.952Z,100298.06
2018-03-18T20:08:15.356Z,100298.64
2018-03-18T20:10:42.877Z,100282.95
2018-03-18T20:13:10.266Z,100310.94
2018-03-18T20:15:37.664Z,100291.87
2018-03-18T20:18:05.071Z,100304.61
2018-03-18T20:20:32.512Z,100307.33
2018-03-18T20:22:59.921Z,100305.19
2018-03-18T20:25:27.311Z,100308.84
2018-03-18T20:27:54.726Z,100302.23
2018-03-18T20:30:22.214Z,100310.59
2018-03-18T20:32:49.698Z,100325.34
2018-03-18T20:35:17.120Z,100309.24
2018-03-18T20:37:44.621Z,100316.95
2018-03-18T20:40:12.267Z,100314.55
2018-03-18T20:42:39.663Z,100316.99
2018-03-18T20:45:07.081Z,100323.08
2018-03-18T20:47:34.500Z,100315.00
2018-03-18T20:50:08.266Z,100321.09
2018-03-18T20:52:36.174Z,100316.75
2018-03-18T20:55:03.561Z,100312.59
2018-03-18T20:57:30.968Z,100304.15
2018-03-18T20:59:58.367Z,100315.42
2018-03-18T21:02:25.781Z,100312.16
2018-03-18T21:04:53.178Z,100316.52
2018-03-18T21:07:20.620Z,100318.44
2018-03-18T21:09:48.016Z,100306.11
2018-03-18T21:12:15.432Z,100334.64
2018-03-18T21:14:42.862Z,100310.05
2018-03-18T21:17:10.248Z,100318.73
2018-03-18T21:19:37.712Z,100313.72
2018-03-18T21:22:05.080Z,100317.96
2018-03-18T21:24:32.483Z,100314.98
2018-03-18T21:26:59.905Z,100311.97
2018-03-18T21:29:27.346Z,100330.66
2018-03-18T21:31:54.762Z,100316.58
2018-03-18T21:34:22.143Z,100320.27
2018-03-18T21:36:49.568Z,100315.67
2018-03-18T21:39:16.968Z,100315.28
2018-03-18T21:41:44.380Z,100320.29
2018-03-18T21:44:11.783Z,100320.83
2018-03-18T21:46:39.180Z,100312.59
2018-03-18T21:49:06.598Z,100326.23
2018-03-18T21:51:34.008Z,100321.80
2018-03-18T21:54:01.419Z,100309.77
2018-03-18T21:56:28.815Z,100309.09
2018-03-18T21:58:56.198Z,100311.53
2018-03-18T22:01:23.617Z,100306.68
2018-03-18T22:03:51.015Z,100298.83
2018-03-18T22:06:18.590Z,100305.89
2018-03-18T22:08:46.030Z,100301.16
2018-03-18T22:11:13.427Z,100310.09
2018-03-18T22:13:40.848Z,100300.07
2018-03-18T22:16:08.247Z,100308.58
2018-03-18T22:18:35.675Z,100301.56
2018-03-18T22:21:03.067Z,100310.34
2018-03-18T22:23:30.491Z,100305.63
2018-03-18T22:25:57.882Z,100312.64
2018-03-18T22:28:25.274Z,100308.59
2018-03-18T22:30:52.695Z,100321.44
2018-03-18T22:33:20.127Z,100312.78
2018-03-18T22:35:47.545Z,100327.77
2018-03-18T22:38:14.936Z,100321.02
2018-03-18T22:40:42.411Z,100333.61
2018-03-18T22:43:09.827Z,100317.41
2018-03-18T22:45:37.228Z,100318.20
2018-03-18T22:48:04.626Z,100323.09
2018-03-18T22:50:32.039Z,100314.30
2018-03-18T22:52:59.439Z,100331.34
2018-03-18T22:55:26.867Z,100327.01
2018-03-18T22:57:54.292Z,100322.42
2018-03-18T23:00:21.942Z,100317.01
2018-03-18T23:02:49.356Z,100318.80
2018-03-18T23:05:16.836Z,100327.03
2018-03-18T23:07:44.268Z,100316.20
2018-03-18T23:10:11.692Z,100303.93
2018-03-18T23:12:39.100Z,100304.45
2018-03-18T23:15:06.494Z,100310.28
2018-03-18T23:17:33.916Z,100316.53
2018-03-18T23:22:35.136Z,100338.00
2018-03-18T23:25:02.545Z,100321.48
2018-03-18T23:27:29.956Z,100326.89
2018-03-18T23:29:57.359Z,100329.73
2018-03-18T23:32:24.791Z,100322.47
2018-03-18T23:34:52.205Z,100329.23
2018-03-18T23:37:19.640Z,100321.13
2018-03-18T23:39:47.055Z,100336.78
2018-03-18T23:42:14.461Z,100311.13
2018-03-18T23:44:42.532Z,100317.20
2018-03-18T23:47:09.967Z,100322.20
2018-03-18T23:49:37.437Z,100310.59
2018-03-18T23:52:04.855Z,100322.47
2018-03-18T23:54:32.260Z,100311.69
2018-03-18T23:56:59.677Z,100314.24
2018-03-18T23:59:27.085Z,100307.34
